Time;durP1;ratioP1;P1;durP2;ratioP2;P2;SDS_P1;SDS_P2;PMS_P1;PMS_P2;Temp;Humidity;BMP_temperature;BMP_pressure;BME280_temperature;BME280_humidity;BME280_pressure;Samples;Min_cycle;Max_cycle;Signal;HPM_P1;HPM_P2
2020/12/27 00:02:17;;;;;;;4.70;3.22;;;5.50;95.60;;;;;;5016202;28;20029;-82
2020/12/27 00:04:44;;;;;;;4.85;2.97;;;5.50;95.60;;;;;;5051166;28;20040;-80
2020/12/27 00:07:14;;;;;;;4.00;2.22;;;5.40;95.40;;;;;;5033815;28;20037;-80
2020/12/27 00:09:44;;;;;;;3.70;2.50;;;5.40;95.40;;;;;;5050558;28;20051;-80
2020/12/27 00:12:14;;;;;;;3.47;2.40;;;5.40;95.40;;;;;;5016754;28;20051;-80
2020/12/27 00:14:40;;;;;;;2.67;2.30;;;5.40;95.40;;;;;;5032333;28;20079;-80
2020/12/27 00:17:09;;;;;;;4.38;2.60;;;5.40;95.40;;;;;;4999629;28;20037;-79
2020/12/27 00:19:35;;;;;;;2.72;2.38;;;5.40;95.50;;;;;;5030834;28;20384;-81
2020/12/27 00:22:03;;;;;;;3.33;2.40;;;5.40;95.30;;;;;;5046529;28;20032;-79
2020/12/27 00:24:30;;;;;;;2.80;2.38;;;5.40;95.40;;;;;;5014540;28;20053;-79
2020/12/27 00:26:56;;;;;;;2.23;1.70;;;5.40;95.30;;;;;;5022695;28;20033;-80
2020/12/27 00:29:23;;;;;;;3.53;2.47;;;5.40;95.30;;;;;;5031165;28;20044;-80
2020/12/27 00:31:51;;;;;;;3.05;1.98;;;5.40;95.20;;;;;;5044112;28;20037;-79
2020/12/27 00:34:18;;;;;;;3.42;2.10;;;5.40;95.20;;;;;;5026767;28;20041;-78
2020/12/27 00:36:45;;;;;;;3.17;2.00;;;5.40;95.20;;;;;;5013790;28;20044;-79
2020/12/27 00:39:12;;;;;;;3.22;2.45;;;5.40;95.30;;;;;;5041669;28;20509;-80
2020/12/27 00:41:39;;;;;;;2.70;1.95;;;5.40;95.20;;;;;;5043032;28;20033;-80
2020/12/27 00:44:05;;;;;;;2.60;1.67;;;5.40;95.20;;;;;;5027270;28;20044;-80
2020/12/27 00:46:32;;;;;;;9.20;2.60;;;5.40;95.20;;;;;;5027358;28;20036;-80
2020/12/27 00:48:59;;;;;;;3.45;2.05;;;5.40;95.20;;;;;;5038827;28;20033;-81
2020/12/27 00:51:27;;;;;;;4.38;1.95;;;5.40;95.20;;;;;;5043650;28;20475;-80
2020/12/27 00:53:54;;;;;;;3.33;2.10;;;5.40;95.00;;;;;;5028688;28;20044;-80
2020/12/27 00:56:23;;;;;;;2.67;1.85;;;5.40;94.90;;;;;;5012731;28;20044;-78
2020/12/27 00:59:08;;;;;;;3.85;1.77;;;5.40;94.80;;;;;;5013736;28;20037;-80
2020/12/27 01:01:35;;;;;;;5.00;1.87;;;5.40;94.90;;;;;;5013455;28;20033;-79
2020/12/27 01:04:17;;;;;;;2.95;1.50;;;5.40;94.80;;;;;;5045563;28;20447;-81
2020/12/27 01:06:44;;;;;;;2.87;1.67;;;5.40;94.80;;;;;;5029119;28;20045;-81
2020/12/27 01:09:10;;;;;;;2.72;2.05;;;5.40;94.80;;;;;;5013340;28;20053;-81
2020/12/27 01:11:37;;;;;;;2.28;1.40;;;5.40;94.80;;;;;;4998097;28;20037;-82
2020/12/27 01:14:03;;;;;;;2.72;1.95;;;5.40;94.70;;;;;;5030087;28;20040;-81
2020/12/27 01:16:30;;;;;;;1.70;1.23;;;5.40;94.90;;;;;;5017712;28;20078;-81
2020/12/27 01:18:57;;;;;;;2.00;1.40;;;5.40;94.70;;;;;;4998138;28;20044;-82
2020/12/27 01:21:32;;;;;;;2.17;1.70;;;5.40;94.50;;;;;;5015639;28;20033;-81
2020/12/27 01:24:05;;;;;;;2.92;1.48;;;5.40;94.60;;;;;;5031149;28;20052;-82
2020/12/27 01:26:37;;;;;;;2.85;1.10;;;5.40;94.50;;;;;;5019673;28;20049;-82
2020/12/27 01:29:04;;;;;;;1.90;1.40;;;5.40;94.50;;;;;;5017913;28;20491;-82
2020/12/27 01:31:33;;;;;;;1.63;1.20;;;5.30;94.50;;;;;;5017411;28;20071;-82
2020/12/27 01:34:05;;;;;;;;;;;5.30;94.30;;;;;;4988666;28;20403;-82
2020/12/27 01:36:38;;;;;;;2.80;1.90;;;5.30;94.20;;;;;;5018974;28;19924;-82
2020/12/27 01:39:11;;;;;;;2.80;1.75;;;5.30;94.10;;;;;;5051139;28;20833;-82
2020/12/27 01:41:39;;;;;;;4.35;1.92;;;5.20;93.90;;;;;;5017754;28;20488;-82
2020/12/27 01:44:15;;;;;;;3.15;2.10;;;5.20;94.00;;;;;;5019821;28;20033;-82
2020/12/27 01:46:47;;;;;;;3.73;1.90;;;5.20;93.90;;;;;;5034488;28;20045;-82
2020/12/27 01:49:24;;;;;;;3.10;1.80;;;5.20;94.00;;;;;;5032956;28;20049;-82
2020/12/27 01:51:51;;;;;;;2.83;1.92;;;5.20;93.90;;;;;;5033212;28;20037;-82
2020/12/27 01:54:33;;;;;;;3.50;2.03;;;5.20;94.00;;;;;;5005513;28;20408;-82
2020/12/27 01:57:26;;;;;;;5.18;2.08;;;5.20;94.00;;;;;;5019308;28;20032;-82
2020/12/27 02:00:00;;;;;;;4.97;2.60;;;5.20;94.00;;;;;;5033593;28;20048;-82
2020/12/27 02:02:52;;;;;;;3.03;1.77;;;5.20;94.10;;;;;;5004346;28;20703;-82
2020/12/27 02:05:24;;;;;;;3.72;2.40;;;5.20;94.10;;;;;;5019510;28;20033;-82
2020/12/27 02:07:52;;;;;;;4.93;2.30;;;5.20;94.10;;;;;;5035181;28;20057;-82
2020/12/27 02:10:30;;;;;;;3.78;2.03;;;5.20;94.00;;;;;;5034067;28;20076;-82
2020/12/27 02:12:58;;;;;;;3.10;2.00;;;5.20;94.00;;;;;;5016128;28;20048;-82
2020/12/27 02:15:24;;;;;;;2.88;2.42;;;5.20;93.90;;;;;;5036263;28;20069;-82
2020/12/27 02:18:09;;;;;;;4.10;2.33;;;5.20;94.00;;;;;;5021698;28;20036;-82
2020/12/27 02:20:39;;;;;;;4.63;2.45;;;5.20;94.00;;;;;;5017638;28;20052;-82
2020/12/27 02:23:13;;;;;;;3.70;2.28;;;5.20;93.90;;;;;;5016476;28;20044;-82
2020/12/27 02:26:03;;;;;;;4.32;2.80;;;5.20;94.00;;;;;;5050360;28;20041;-82
2020/12/27 02:28:35;;;;;;;4.33;2.67;;;5.20;93.80;;;;;;5052235;28;20049;-82
2020/12/27 02:31:04;;;;;;;3.60;2.60;;;5.20;93.90;;;;;;5000900;28;20056;-82
2020/12/27 02:33:40;;;;;;;4.40;2.33;;;5.20;93.90;;;;;;5019049;28;20067;-82
2020/12/27 02:36:12;;;;;;;5.33;2.80;;;5.20;93.80;;;;;;4993319;28;20037;-81
2020/12/27 02:38:40;;;;;;;3.50;2.70;;;5.20;93.80;;;;;;5035032;28;20484;-82
2020/12/27 02:41:21;;;;;;;4.70;2.88;;;5.20;93.80;;;;;;5016713;28;20530;-82
2020/12/27 02:43:58;;;;;;;5.65;2.83;;;5.20;93.90;;;;;;5049904;28;20036;-82
2020/12/27 02:46:27;;;;;;;4.78;2.40;;;5.10;93.80;;;;;;4985562;28;20419;-82
2020/12/27 02:49:17;;;;;;;5.05;2.75;;;5.10;93.90;;;;;;5058354;28;20041;-82
2020/12/27 02:51:43;;;;;;;6.18;2.90;;;5.10;93.90;;;;;;4998109;28;20041;-82
2020/12/27 02:54:13;;;;;;;4.15;3.20;;;5.20;94.00;;;;;;5002037;28;20484;-82
2020/12/27 02:56:39;;;;;;;3.93;2.63;;;5.10;93.90;;;;;;5000608;28;20040;-81
2020/12/27 02:59:06;;;;;;;4.47;2.88;;;5.10;93.80;;;;;;5016641;28;20052;-81
2020/12/27 03:01:32;;;;;;;3.97;2.50;;;5.20;93.90;;;;;;5000296;28;20746;-81
2020/12/27 03:04:14;;;;;;;5.50;3.10;;;5.10;93.80;;;;;;5010290;28;20032;-81
2020/12/27 03:06:42;;;;;;;3.95;2.45;;;5.10;93.70;;;;;;5000446;28;20120;-82
2020/12/27 03:09:20;;;;;;;5.13;2.78;;;5.10;93.70;;;;;;5003874;28;20150;-81
2020/12/27 03:12:02;;;;;;;3.75;2.75;;;5.10;93.70;;;;;;4990869;28;20041;-82
2020/12/27 03:14:29;;;;;;;4.20;2.47;;;5.10;93.70;;;;;;5036643;28;20049;-82
2020/12/27 03:17:22;;;;;;;4.07;2.30;;;5.10;93.70;;;;;;5009262;28;20045;-82
2020/12/27 03:20:04;;;;;;;3.33;2.30;;;5.10;93.70;;;;;;5017834;28;20045;-82
2020/12/27 03:22:37;;;;;;;4.10;2.50;;;5.10;93.80;;;;;;5033455;28;20620;-81
2020/12/27 03:25:18;;;;;;;4.17;2.40;;;5.10;93.80;;;;;;5016558;28;20052;-82
2020/12/27 03:27:45;;;;;;;4.55;2.70;;;5.20;93.70;;;;;;4999615;28;20494;-82
2020/12/27 03:30:12;;;;;;;3.60;2.47;;;5.10;93.80;;;;;;5031662;28;20056;-81
2020/12/27 03:32:41;;;;;;;2.95;2.28;;;5.10;93.70;;;;;;5016635;28;20056;-81
2020/12/27 03:35:08;;;;;;;4.60;2.47;;;5.20;93.70;;;;;;5047689;28;20496;-81
2020/12/27 03:37:37;;;;;;;2.93;2.07;;;5.10;93.70;;;;;;5016150;28;20057;-82
2020/12/27 03:40:27;;;;;;;3.63;2.20;;;5.10;93.70;;;;;;5033826;28;20037;-81
2020/12/27 03:43:07;;;;;;;4.60;1.92;;;5.20;93.70;;;;;;5001882;28;20041;-82
2020/12/27 03:45:33;;;;;;;5.15;3.00;;;5.10;93.70;;;;;;5002135;28;20040;-81
2020/12/27 03:48:07;;;;;;;3.13;1.80;;;5.10;93.60;;;;;;5032001;28;20049;-81
2020/12/27 03:50:53;;;;;;;4.13;2.15;;;5.10;93.70;;;;;;5032022;28;20041;-81
2020/12/27 03:53:21;;;;;;;4.05;1.90;;;5.10;93.70;;;;;;5019480;28;20396;-81
2020/12/27 03:56:06;;;;;;;5.43;2.25;;;5.10;93.80;;;;;;5020989;28;20076;-81
2020/12/27 03:59:00;;;;;;;5.47;2.88;;;5.10;93.90;;;;;;5006707;28;20522;-82
2020/12/27 04:01:36;;;;;;;4.30;2.40;;;5.10;94.00;;;;;;5001639;28;20041;-81
2020/12/27 04:04:03;;;;;;;4.23;2.10;;;5.10;94.00;;;;;;5000133;28;20037;-82
2020/12/27 04:06:30;;;;;;;3.45;2.05;;;5.10;93.90;;;;;;4999749;28;20373;-82
2020/12/27 04:09:13;;;;;;;4.10;2.30;;;5.10;94.00;;;;;;5005002;28;20032;-83
2020/12/27 04:11:40;;;;;;;2.35;1.58;;;5.10;93.90;;;;;;4992987;28;20040;-83
2020/12/27 04:14:07;;;;;;;4.30;1.90;;;5.10;94.00;;;;;;4998317;28;20041;-82
2020/12/27 04:16:34;;;;;;;3.70;2.10;;;5.10;94.30;;;;;;5015515;28;20033;-82
2020/12/27 04:19:03;;;;;;;7.07;4.65;;;5.10;94.00;;;;;;5013272;28;20029;-82
2020/12/27 04:21:47;;;;;;;4.97;2.20;;;5.10;93.90;;;;;;5047899;28;20045;-83
2020/12/27 04:24:36;;;;;;;3.65;2.35;;;5.10;94.00;;;;;;5006451;28;20044;-82
2020/12/27 04:27:07;;;;;;;4.50;2.30;;;5.10;94.00;;;;;;5016568;28;20040;-83
2020/12/27 04:29:34;;;;;;;7.75;4.95;;;5.10;94.00;;;;;;5051125;28;20045;-83
2020/12/27 04:32:01;;;;;;;5.75;3.75;;;5.20;94.00;;;;;;5015511;28;20530;-83
2020/12/27 04:34:45;;;;;;;4.83;2.53;;;5.20;94.00;;;;;;5016229;28;20037;-84
2020/12/27 04:37:12;;;;;;;3.92;1.83;;;5.20;94.00;;;;;;5015740;28;20029;-83
2020/12/27 04:39:48;;;;;;;3.00;1.90;;;5.20;94.00;;;;;;4989411;28;20041;-82
2020/12/27 04:42:15;;;;;;;4.07;1.50;;;5.20;93.90;;;;;;5031808;28;20056;-83
2020/12/27 04:44:54;;;;;;;3.67;1.53;;;5.20;93.90;;;;;;4991837;28;20040;-83
2020/12/27 04:47:29;;;;;;;2.85;1.63;;;5.20;93.90;;;;;;5001387;28;20037;-83
2020/12/27 04:50:32;;;;;;;2.25;1.35;;;5.20;93.90;;;;;;5031898;28;20048;-83
2020/12/27 04:52:59;;;;;;;2.00;1.10;;;5.20;93.80;;;;;;5035975;28;20049;-83
2020/12/27 04:55:30;;;;;;;2.30;1.27;;;5.20;93.70;;;;;;5019509;28;20041;-84
2020/12/27 04:58:22;;;;;;;3.20;1.00;;;5.30;93.70;;;;;;5021639;28;20044;-83
2020/12/27 05:01:09;;;;;;;2.53;1.10;;;5.30;93.80;;;;;;5028188;28;20730;-83
2020/12/27 05:03:58;;;;;;;1.63;0.80;;;5.30;93.80;;;;;;5038597;28;20041;-83
2020/12/27 05:06:31;;;;;;;3.33;1.08;;;5.30;93.90;;;;;;5051964;28;20053;-83
2020/12/27 05:09:00;;;;;;;2.45;0.82;;;5.30;93.90;;;;;;5018514;28;20041;-83
2020/12/27 05:11:29;;;;;;;2.65;0.93;;;5.30;93.90;;;;;;5019107;28;20041;-84
2020/12/27 05:14:04;;;;;;;1.70;0.70;;;5.30;93.90;;;;;;5035418;28;20045;-83
2020/12/27 05:16:36;;;;;;;1.90;0.88;;;5.30;94.00;;;;;;5004026;28;20049;-83
2020/12/27 05:19:05;;;;;;;2.15;0.60;;;5.40;94.10;;;;;;5034620;28;20052;-83
2020/12/27 05:21:37;;;;;;;2.90;0.85;;;5.30;94.10;;;;;;4985798;28;20060;-84
2020/12/27 05:24:13;;;;;;;2.63;0.90;;;5.40;94.20;;;;;;5002432;28;20033;-83
2020/12/27 05:26:53;;;;;;;2.20;1.00;;;5.30;94.10;;;;;;5032805;28;20025;-83
2020/12/27 05:29:42;;;;;;;3.65;0.90;;;5.30;94.30;;;;;;5021676;28;20036;-84
2020/12/27 05:32:31;;;;;;;0.95;0.57;;;5.30;94.30;;;;;;5021929;28;20049;-83
2020/12/27 05:35:36;;;;;;;1.60;0.70;;;5.30;94.40;;;;;;5052342;28;20064;-83
2020/12/27 05:38:08;;;;;;;1.92;0.70;;;5.30;94.50;;;;;;5035668;28;20045;-83
2020/12/27 05:40:53;;;;;;;1.60;0.80;;;5.30;94.60;;;;;;5036852;28;20053;-83
2020/12/27 05:43:29;;;;;;;2.42;0.60;;;5.20;94.70;;;;;;5004342;28;20487;-83
2020/12/27 05:46:05;;;;;;;0.93;0.60;;;5.20;94.90;;;;;;5004100;28;20033;-83
2020/12/27 05:48:33;;;;;;;1.17;0.52;;;5.20;95.00;;;;;;5017901;28;20037;-81
2020/12/27 05:51:04;;;;;;;1.55;0.60;;;5.20;95.10;;;;;;5017436;28;20041;-81
2020/12/27 05:53:37;;;;;;;1.50;0.40;;;5.20;95.20;;;;;;5035687;28;20037;-80
2020/12/27 05:56:08;;;;;;;1.30;0.70;;;5.20;95.30;;;;;;5017088;28;20366;-80
2020/12/27 05:58:44;;;;;;;0.93;0.52;;;5.20;95.40;;;;;;5049613;28;20045;-80
2020/12/27 06:01:22;;;;;;;0.73;0.40;;;5.20;95.40;;;;;;5048567;28;20041;-80
2020/12/27 06:03:59;;;;;;;2.40;0.60;;;5.10;95.50;;;;;;5034387;28;20044;-80
2020/12/27 06:06:56;;;;;;;0.90;0.50;;;5.20;95.60;;;;;;5036968;28;20033;-80
2020/12/27 06:09:47;;;;;;;1.25;0.50;;;5.10;95.60;;;;;;5032503;28;20064;-79
2020/12/27 06:12:14;;;;;;;2.08;0.50;;;5.10;95.70;;;;;;5035830;28;20025;-80
2020/12/27 06:15:08;;;;;;;0.80;0.40;;;5.20;95.70;;;;;;5019803;28;20041;-80
2020/12/27 06:17:54;;;;;;;;;;;5.10;95.80;;;;;;5034977;28;20041;-81
2020/12/27 06:20:55;;;;;;;2.50;0.93;;;5.10;95.80;;;;;;5039731;28;19923;-78
2020/12/27 06:23:26;;;;;;;2.67;1.13;;;5.10;95.90;;;;;;5038760;28;20056;-78
2020/12/27 06:26:00;;;;;;;1.27;0.30;;;5.10;96.00;;;;;;5049144;28;20040;-78
2020/12/27 06:28:29;;;;;;;0.90;0.40;;;5.10;96.10;;;;;;5051231;28;20051;-78
2020/12/27 06:31:19;;;;;;;3.40;0.40;;;5.10;96.20;;;;;;5047080;28;20112;-79
2020/12/27 06:34:02;;;;;;;1.37;0.30;;;5.10;96.30;;;;;;5035784;28;20041;-79
2020/12/27 06:36:51;;;;;;;1.60;0.40;;;5.10;96.30;;;;;;4994487;28;20029;-79
2020/12/27 06:39:42;;;;;;;0.93;0.38;;;5.10;96.40;;;;;;5051305;28;20045;-79
2020/12/27 06:42:28;;;;;;;0.93;0.20;;;5.10;96.40;;;;;;5018765;28;20037;-80
2020/12/27 06:45:29;;;;;;;1.07;0.20;;;5.10;96.50;;;;;;5042878;28;20043;-80
2020/12/27 06:48:32;;;;;;;0.95;0.30;;;5.10;96.50;;;;;;5018273;28;20395;-80
2020/12/27 06:51:37;;;;;;;0.43;0.22;;;5.10;96.60;;;;;;5043618;28;20036;-80
2020/12/27 06:54:04;;;;;;;1.50;0.30;;;5.10;96.70;;;;;;5021940;28;20032;-80
2020/12/27 06:56:43;;;;;;;1.45;0.30;;;5.10;96.80;;;;;;5047903;28;20044;-81
2020/12/27 06:59:39;;;;;;;1.43;0.20;;;5.10;96.90;;;;;;5054463;28;20037;-80
2020/12/27 07:02:11;;;;;;;0.43;0.20;;;5.10;97.00;;;;;;4999214;28;20045;-79
2020/12/27 07:04:38;;;;;;;0.93;0.35;;;5.10;97.00;;;;;;5049944;28;20476;-79
2020/12/27 07:07:04;;;;;;;0.35;0.20;;;5.10;97.00;;;;;;5019800;28;20047;-79
2020/12/27 07:09:32;;;;;;;0.63;0.30;;;5.10;97.00;;;;;;5017326;28;20049;-80
2020/12/27 07:12:11;;;;;;;1.30;0.20;;;5.10;97.10;;;;;;5016369;28;20040;-80
2020/12/27 07:14:50;;;;;;;0.90;0.20;;;5.10;97.10;;;;;;5030673;28;20037;-79
2020/12/27 07:17:24;;;;;;;1.37;0.30;;;5.20;97.20;;;;;;5033378;28;20051;-80
2020/12/27 07:19:58;;;;;;;1.50;0.30;;;5.20;97.20;;;;;;5018242;28;20128;-80
2020/12/27 07:22:27;;;;;;;0.88;0.30;;;5.20;97.30;;;;;;5030792;28;20041;-80
2020/12/27 07:24:53;;;;;;;0.90;0.40;;;5.20;97.30;;;;;;5016784;28;20029;-80
2020/12/27 07:27:19;;;;;;;1.50;0.30;;;5.20;97.30;;;;;;5015683;28;20408;-80
2020/12/27 07:29:56;;;;;;;0.82;0.20;;;5.20;97.30;;;;;;5016330;28;20060;-80
2020/12/27 07:32:24;;;;;;;1.10;0.27;;;5.20;97.20;;;;;;5031628;28;20477;-80
2020/12/27 07:34:56;;;;;;;1.30;0.50;;;5.30;97.30;;;;;;5000317;28;20041;-80
2020/12/27 07:37:28;;;;;;;0.70;0.30;;;5.30;97.30;;;;;;5033198;28;20045;-80
2020/12/27 07:39:57;;;;;;;0.47;0.30;;;5.30;97.30;;;;;;5049330;28;20045;-80
2020/12/27 07:42:34;;;;;;;2.10;0.30;;;5.30;97.30;;;;;;5049665;28;20033;-80
2020/12/27 07:45:12;;;;;;;0.50;0.30;;;5.30;97.20;;;;;;5019382;28;20032;-80
2020/12/27 07:47:39;;;;;;;1.30;0.30;;;5.40;97.20;;;;;;5048969;28;20044;-80
2020/12/27 07:50:11;;;;;;;1.08;0.30;;;5.30;97.10;;;;;;4999733;28;20044;-79
2020/12/27 07:52:51;;;;;;;1.20;0.70;;;5.30;97.10;;;;;;5052055;28;20043;-80
2020/12/27 07:55:36;;;;;;;0.57;0.28;;;5.30;97.10;;;;;;5048361;28;20064;-80
2020/12/27 07:58:07;;;;;;;0.70;0.20;;;5.40;97.10;;;;;;5033940;28;20049;-80
2020/12/27 08:00:36;;;;;;;0.73;0.20;;;5.40;97.10;;;;;;5034066;28;20476;-80
2020/12/27 08:03:04;;;;;;;1.60;0.20;;;5.40;97.10;;;;;;5029741;28;20507;-79
2020/12/27 08:05:31;;;;;;;0.20;0.20;;;5.40;97.00;;;;;;5015416;28;20056;-80
2020/12/27 08:08:09;;;;;;;0.73;0.30;;;5.40;97.00;;;;;;5019907;28;20749;-80
2020/12/27 08:10:37;;;;;;;0.30;0.20;;;5.40;96.90;;;;;;5030444;28;20044;-80
2020/12/27 08:13:05;;;;;;;1.03;0.20;;;5.50;96.90;;;;;;5017004;28;20045;-80
2020/12/27 08:15:40;;;;;;;0.83;0.10;;;5.50;96.90;;;;;;5050052;28;20400;-79
2020/12/27 08:18:09;;;;;;;0.50;0.20;;;5.50;96.80;;;;;;5048673;28;20041;-80
2020/12/27 08:20:46;;;;;;;2.05;0.50;;;5.50;96.70;;;;;;5049680;28;20047;-80
2020/12/27 08:23:14;;;;;;;0.57;0.20;;;5.50;96.70;;;;;;5034282;28;20025;-80
2020/12/27 08:25:40;;;;;;;0.63;0.20;;;5.60;96.70;;;;;;5052960;28;21216;-80
2020/12/27 08:28:13;;;;;;;1.35;0.17;;;5.60;96.80;;;;;;5039336;28;20813;-79
2020/12/27 08:30:40;;;;;;;0.55;0.22;;;5.60;96.20;;;;;;5018520;28;20037;-80
2020/12/27 08:33:14;;;;;;;1.08;0.20;;;5.60;96.10;;;;;;5052663;28;20045;-79
2020/12/27 08:35:51;;;;;;;0.70;0.22;;;5.60;96.10;;;;;;5052667;28;20056;-80
2020/12/27 08:38:35;;;;;;;0.30;0.15;;;5.70;96.10;;;;;;5035842;28;20052;-80
2020/12/27 08:41:31;;;;;;;0.30;0.13;;;5.70;96.10;;;;;;5052536;28;20052;-80
2020/12/27 08:44:07;;;;;;;0.20;0.10;;;5.70;96.00;;;;;;5052057;28;20387;-80
2020/12/27 08:46:46;;;;;;;0.40;0.20;;;5.80;95.90;;;;;;5033493;28;20047;-80
2020/12/27 08:49:29;;;;;;;0.55;0.10;;;5.80;95.80;;;;;;5049802;28;20029;-79
2020/12/27 08:52:01;;;;;;;;;;;5.80;95.80;;;;;;5053307;28;20467;-79
2020/12/27 08:54:28;;;;;;;0.20;0.20;;;5.80;95.70;;;;;;5051192;28;20278;-79
2020/12/27 08:56:54;;;;;;;0.55;0.13;;;5.90;95.70;;;;;;5034432;28;20040;-80
2020/12/27 08:59:21;;;;;;;0.30;0.10;;;5.90;95.70;;;;;;5032758;28;20052;-79
2020/12/27 09:01:50;;;;;;;0.70;0.20;;;5.90;95.70;;;;;;5034500;28;20391;-79
2020/12/27 09:04:18;;;;;;;0.30;0.20;;;5.90;95.80;;;;;;5036501;28;20047;-80
2020/12/27 09:06:55;;;;;;;0.45;0.30;;;5.90;95.80;;;;;;5051519;28;20044;-80
2020/12/27 09:09:22;;;;;;;0.52;0.20;;;5.90;95.90;;;;;;5033460;28;20056;-79
2020/12/27 09:11:49;;;;;;;0.52;0.20;;;5.80;95.90;;;;;;5034928;28;20403;-79
2020/12/27 09:14:40;;;;;;;0.63;0.10;;;5.80;96.10;;;;;;5017640;28;20043;-80
2020/12/27 09:17:13;;;;;;;0.50;0.20;;;5.80;96.10;;;;;;5049134;28;20053;-80
2020/12/27 09:19:45;;;;;;;;;;;5.80;96.20;;;;;;5050228;28;20120;-80
2020/12/27 09:22:11;;;;;;;1.33;0.40;;;5.80;96.30;;;;;;5032183;28;19924;-79
2020/12/27 09:24:38;;;;;;;1.05;0.50;;;5.80;96.40;;;;;;5019217;28;20032;-79
2020/12/27 09:27:09;;;;;;;0.43;0.13;;;5.70;96.50;;;;;;5017542;28;20052;-80
2020/12/27 09:29:36;;;;;;;0.30;0.20;;;5.70;96.50;;;;;;5015862;28;20400;-80
2020/12/27 09:32:12;;;;;;;0.20;0.15;;;5.70;96.60;;;;;;5052546;28;20052;-79
2020/12/27 09:34:40;;;;;;;0.30;0.10;;;5.70;96.70;;;;;;5032104;28;20033;-80
2020/12/27 09:37:17;;;;;;;0.60;0.10;;;5.70;96.70;;;;;;5032045;28;20476;-80
2020/12/27 09:39:53;;;;;;;0.52;0.15;;;5.70;96.80;;;;;;5036830;28;20400;-80
2020/12/27 09:42:25;;;;;;;0.82;0.20;;;5.70;96.80;;;;;;5036557;28;20056;-80
2020/12/27 09:44:52;;;;;;;0.32;0.20;;;5.70;96.80;;;;;;5033477;28;20033;-80
2020/12/27 09:47:23;;;;;;;1.95;0.20;;;5.70;96.80;;;;;;5020979;28;20044;-80
2020/12/27 09:50:08;;;;;;;0.17;0.10;;;5.70;96.90;;;;;;5052809;28;20049;-81
2020/12/27 09:52:47;;;;;;;0.30;0.20;;;5.70;96.90;;;;;;5016943;28;20395;-79
2020/12/27 09:55:14;;;;;;;0.20;0.10;;;5.70;96.90;;;;;;5054882;28;20060;-81
2020/12/27 09:57:43;;;;;;;0.30;0.10;;;5.80;97.00;;;;;;5050368;28;20049;-80
2020/12/27 10:00:10;;;;;;;0.43;0.10;;;5.80;97.00;;;;;;5036081;28;20033;-80
2020/12/27 10:02:36;;;;;;;0.65;0.20;;;5.80;96.90;;;;;;5012146;28;20041;-80
2020/12/27 10:05:03;;;;;;;2.88;0.38;;;5.80;96.90;;;;;;5050317;28;20941;-80
2020/12/27 10:07:30;;;;;;;0.40;0.20;;;5.80;97.00;;;;;;5050339;28;20688;-79
2020/12/27 10:09:57;;;;;;;1.27;0.20;;;5.80;97.00;;;;;;5053718;28;20063;-79
2020/12/27 10:12:23;;;;;;;0.55;0.20;;;5.80;97.00;;;;;;5046454;28;20040;-80
2020/12/27 10:14:50;;;;;;;0.45;0.13;;;5.80;97.00;;;;;;5047261;28;20041;-80
2020/12/27 10:17:17;;;;;;;0.75;0.20;;;5.80;97.00;;;;;;5037221;28;20033;-80
2020/12/27 10:19:44;;;;;;;1.05;0.20;;;5.80;97.10;;;;;;5046310;28;20045;-79
2020/12/27 10:22:10;;;;;;;1.65;0.20;;;5.80;97.20;;;;;;5046001;28;20726;-80
2020/12/27 10:24:37;;;;;;;0.40;0.20;;;5.80;97.20;;;;;;5049203;28;20044;-80
2020/12/27 10:27:06;;;;;;;0.40;0.20;;;5.80;97.20;;;;;;5053878;28;20037;-81
2020/12/27 10:29:33;;;;;;;0.60;0.20;;;5.80;97.20;;;;;;5032955;28;20033;-80
2020/12/27 10:32:02;;;;;;;0.93;0.20;;;5.80;97.20;;;;;;5053316;28;20040;-80
2020/12/27 10:34:29;;;;;;;1.58;0.40;;;5.80;97.20;;;;;;5032566;28;20048;-79
2020/12/27 10:36:57;;;;;;;0.45;0.20;;;5.80;97.20;;;;;;5034786;28;20056;-83
2020/12/27 10:39:24;;;;;;;0.30;0.13;;;5.80;97.20;;;;;;5049664;28;20407;-81
2020/12/27 10:41:52;;;;;;;0.40;0.20;;;5.80;97.20;;;;;;5032396;28;20041;-79
2020/12/27 10:44:20;;;;;;;1.02;0.30;;;5.80;97.20;;;;;;5031546;28;20037;-82
2020/12/27 10:46:49;;;;;;;1.60;0.43;;;5.80;97.20;;;;;;5033271;28;20395;-81
2020/12/27 10:49:21;;;;;;;0.88;0.20;;;5.80;97.20;;;;;;5034769;28;20039;-80
2020/12/27 10:51:48;;;;;;;0.60;0.20;;;5.80;97.20;;;;;;5015644;28;20045;-79
2020/12/27 10:54:15;;;;;;;1.45;0.30;;;5.80;97.20;;;;;;5034510;28;20040;-77
2020/12/27 10:56:43;;;;;;;0.68;0.20;;;5.80;97.20;;;;;;5034249;28;20040;-77
2020/12/27 10:59:10;;;;;;;0.60;0.20;;;5.80;97.10;;;;;;5032526;28;20029;-78
2020/12/27 11:01:42;;;;;;;1.00;0.40;;;5.80;97.10;;;;;;5049110;28;20041;-79
2020/12/27 11:04:08;;;;;;;0.95;0.30;;;5.80;97.10;;;;;;5049881;28;20037;-78
2020/12/27 11:06:35;;;;;;;0.40;0.20;;;5.90;97.10;;;;;;5049204;28;20040;-78
2020/12/27 11:09:02;;;;;;;0.55;0.15;;;5.90;97.10;;;;;;5049911;28;20041;-78
2020/12/27 11:11:28;;;;;;;0.30;0.20;;;5.90;97.00;;;;;;5033143;28;20040;-79
2020/12/27 11:13:55;;;;;;;0.22;0.10;;;5.90;97.00;;;;;;5030172;28;20033;-78
2020/12/27 11:16:22;;;;;;;0.45;0.20;;;5.90;96.90;;;;;;5030112;28;20051;-78
2020/12/27 11:18:48;;;;;;;0.30;0.10;;;5.90;96.90;;;;;;5031071;28;20036;-78
2020/12/27 11:21:14;;;;;;;0.38;0.17;;;5.90;96.90;;;;;;5045683;28;20443;-79
2020/12/27 11:23:41;;;;;;;0.30;0.20;;;5.90;96.90;;;;;;5029155;28;20041;-78
2020/12/27 11:26:07;;;;;;;1.30;0.10;;;5.90;96.90;;;;;;5046391;28;20029;-79
2020/12/27 11:28:34;;;;;;;1.20;0.20;;;5.90;96.90;;;;;;5051554;28;20033;-78
2020/12/27 11:31:00;;;;;;;4.28;2.20;;;6.00;96.80;;;;;;5031296;28;20057;-81
2020/12/27 11:33:27;;;;;;;2.45;0.80;;;6.00;96.80;;;;;;4995715;28;20500;-80
2020/12/27 11:35:53;;;;;;;0.82;0.30;;;6.00;96.60;;;;;;5046758;28;20040;-79
2020/12/27 11:38:22;;;;;;;0.32;0.15;;;6.00;96.60;;;;;;5046981;28;20041;-77
2020/12/27 11:40:48;;;;;;;0.63;0.20;;;6.00;96.60;;;;;;5041635;28;20049;-78
2020/12/27 11:43:15;;;;;;;0.40;0.20;;;6.00;96.50;;;;;;5043064;28;20041;-81
2020/12/27 11:45:41;;;;;;;0.30;0.10;;;6.10;96.50;;;;;;5047467;28;20045;-81
2020/12/27 11:48:08;;;;;;;0.35;0.20;;;6.10;96.40;;;;;;5045961;28;20048;-79
2020/12/27 11:50:34;;;;;;;0.57;0.10;;;6.10;96.40;;;;;;5026428;28;20044;-78
2020/12/27 11:53:01;;;;;;;0.40;0.20;;;6.10;96.30;;;;;;5048327;28;20056;-77
2020/12/27 11:55:27;;;;;;;0.40;0.20;;;6.10;96.20;;;;;;5044249;28;20372;-79
2020/12/27 11:57:54;;;;;;;1.85;0.20;;;6.20;96.20;;;;;;5017025;28;20957;-77
2020/12/27 12:00:20;;;;;;;0.20;0.10;;;6.20;96.00;;;;;;5047889;28;20476;-77
2020/12/27 12:02:47;;;;;;;0.88;0.20;;;6.20;95.90;;;;;;5033011;28;20044;-76
2020/12/27 12:05:14;;;;;;;0.63;0.15;;;6.20;95.80;;;;;;5034906;28;20041;-77
2020/12/27 12:07:41;;;;;;;0.45;0.13;;;6.20;95.70;;;;;;5001345;28;20055;-77
2020/12/27 12:10:07;;;;;;;0.75;0.15;;;6.20;95.60;;;;;;5048438;28;20295;-77
2020/12/27 12:12:34;;;;;;;0.10;0.10;;;6.30;95.40;;;;;;5050332;28;20459;-77
2020/12/27 12:15:01;;;;;;;0.43;0.10;;;6.30;95.50;;;;;;5048660;28;20049;-77
2020/12/27 12:17:28;;;;;;;0.43;0.13;;;6.30;95.40;;;;;;5049544;28;20041;-77
2020/12/27 12:19:54;;;;;;;0.40;0.10;;;6.30;95.10;;;;;;5052723;28;20055;-80
2020/12/27 12:22:21;;;;;;;0.35;0.10;;;6.30;95.10;;;;;;4985749;28;20029;-79
2020/12/27 12:24:48;;;;;;;0.90;0.10;;;6.30;94.80;;;;;;5047116;28;20057;-80
2020/12/27 12:27:15;;;;;;;0.30;0.10;;;6.30;94.90;;;;;;5031178;28;20028;-78
2020/12/27 12:29:42;;;;;;;0.10;0.10;;;6.40;94.80;;;;;;5050173;28;20029;-79
2020/12/27 12:32:08;;;;;;;0.38;0.10;;;6.30;94.80;;;;;;5050802;28;20057;-79
2020/12/27 12:34:35;;;;;;;1.15;0.10;;;6.40;94.70;;;;;;5054036;28;20040;-78
2020/12/27 12:37:02;;;;;;;0.52;0.20;;;6.40;94.60;;;;;;5058396;28;20475;-78
2020/12/27 12:39:29;;;;;;;0.20;0.10;;;6.40;94.50;;;;;;5054727;28;20041;-78
2020/12/27 12:41:57;;;;;;;0.45;0.10;;;6.40;94.50;;;;;;5036526;28;20033;-78
2020/12/27 12:44:24;;;;;;;0.40;0.10;;;6.40;94.50;;;;;;5058564;28;20028;-78
2020/12/27 12:46:51;;;;;;;0.17;0.10;;;6.40;94.40;;;;;;5055265;28;20029;-78
2020/12/27 12:49:17;;;;;;;0.50;0.10;;;6.40;94.30;;;;;;5056121;28;20045;-78
2020/12/27 12:51:44;;;;;;;0.30;0.10;;;6.40;94.20;;;;;;5051852;28;20068;-78
2020/12/27 12:54:10;;;;;;;1.35;0.20;;;6.50;94.30;;;;;;5036117;28;20045;-78
2020/12/27 12:56:37;;;;;;;0.10;0.00;;;6.50;94.20;;;;;;5053983;28;20048;-79
2020/12/27 12:59:05;;;;;;;0.85;0.10;;;6.50;94.00;;;;;;5053195;28;20060;-78
2020/12/27 13:01:33;;;;;;;0.40;0.10;;;6.50;94.20;;;;;;5036134;28;20055;-78
2020/12/27 13:03:59;;;;;;;0.30;0.00;;;6.50;94.10;;;;;;5022744;28;20041;-78
2020/12/27 13:06:26;;;;;;;0.68;0.20;;;6.50;94.20;;;;;;5037624;28;20041;-76
2020/12/27 13:08:52;;;;;;;4.45;2.15;;;6.50;94.20;;;;;;5035218;28;20037;-77
2020/12/27 13:11:19;;;;;;;0.30;0.10;;;6.50;94.30;;;;;;5002970;28;20047;-78
2020/12/27 13:13:45;;;;;;;1.35;0.10;;;6.50;94.10;;;;;;5022507;28;20056;-78
2020/12/27 13:16:12;;;;;;;0.40;0.10;;;6.50;93.90;;;;;;5052371;28;20375;-78
2020/12/27 13:18:38;;;;;;;0.30;0.10;;;6.50;94.00;;;;;;5051523;28;20045;-78
2020/12/27 13:21:05;;;;;;;0.30;0.10;;;6.50;94.10;;;;;;5032399;28;20049;-77
2020/12/27 13:23:32;;;;;;;0.25;0.10;;;6.50;94.00;;;;;;5014768;28;20037;-77
2020/12/27 13:25:59;;;;;;;0.28;0.10;;;6.50;93.80;;;;;;5021053;28;20036;-78